Time;durP1;ratioP1;P1;durP2;ratioP2;P2;SDS_P1;SDS_P2;PMS_P1;PMS_P2;Temp;Humidity;BMP_temperature;BMP_pressure;BME280_temperature;BME280_humidity;BME280_pressure;Samples;Min_cycle;Max_cycle;Signal;HPM_P1;HPM_P2
2022/03/14 00:01:03;;;;;;;2.58;1.30;;;;;;;21.00;45.61;101573.31;5035083;28;20060;-64
2022/03/14 00:03:41;;;;;;;4.13;1.33;;;;;;;20.97;45.65;101573.56;5034467;28;20473;-64
2022/03/14 00:06:10;;;;;;;3.33;1.40;;;;;;;20.95;45.76;101578.13;5034942;28;20064;-64
2022/03/14 00:08:38;;;;;;;5.03;1.50;;;;;;;20.93;45.63;101572.94;5034798;28;20033;-64
2022/03/14 00:11:03;;;;;;;2.67;1.30;;;;;;;20.90;45.81;101581.16;5034170;28;20058;-65
2022/03/14 00:13:29;;;;;;;3.33;1.53;;;;;;;20.88;45.59;101592.84;5034715;28;20481;-65
2022/03/14 00:15:57;;;;;;;3.28;1.30;;;;;;;20.85;45.61;101588.63;5034693;28;20281;-65
2022/03/14 00:18:23;;;;;;;3.78;1.30;;;;;;;20.82;45.67;101591.53;5034340;28;20049;-64
2022/03/14 00:20:50;;;;;;;3.45;1.42;;;;;;;20.79;45.59;101597.94;5034113;28;20425;-63
2022/03/14 00:23:17;;;;;;;4.88;1.70;;;;;;;20.75;45.67;101596.50;5034621;28;20396;-64
2022/03/14 00:25:42;;;;;;;4.53;1.25;;;;;;;20.77;45.57;101606.97;5033450;28;20060;-64
2022/03/14 00:28:08;;;;;;;3.75;1.38;;;;;;;20.74;45.87;101608.03;5034709;28;20449;-64
2022/03/14 00:30:33;;;;;;;2.97;1.40;;;;;;;20.73;45.67;101602.88;5034272;28;20029;-64
2022/03/14 00:32:59;;;;;;;2.65;1.17;;;;;;;20.71;45.55;101608.31;5033900;28;20021;-64
2022/03/14 00:35:25;;;;;;;3.08;1.25;;;;;;;20.70;45.96;101609.28;5034522;28;20022;-64
2022/03/14 00:37:50;;;;;;;3.08;1.50;;;;;;;20.67;45.66;101619.28;5034086;28;20104;-64
2022/03/14 00:40:15;;;;;;;2.53;1.20;;;;;;;20.64;45.50;101617.72;5033549;28;20384;-64
2022/03/14 00:42:41;;;;;;;3.25;1.40;;;;;;;20.60;46.04;101625.03;5034120;28;20068;-64
2022/03/14 00:45:07;;;;;;;3.33;1.25;;;;;;;20.60;45.67;101629.47;5033802;28;20021;-64
2022/03/14 00:47:32;;;;;;;2.45;1.08;;;;;;;20.59;45.72;101633.94;5033991;28;20025;-64
2022/03/14 00:49:58;;;;;;;4.38;1.35;;;;;;;20.58;45.83;101628.75;5033988;28;20481;-64
2022/03/14 00:52:23;;;;;;;3.30;1.25;;;;;;;20.56;45.97;101636.81;5033688;28;20021;-64
2022/03/14 00:54:48;;;;;;;3.17;1.33;;;;;;;20.55;45.84;101643.06;5033567;28;20075;-64
2022/03/14 00:57:15;;;;;;;4.00;1.33;;;;;;;20.53;46.10;101639.72;5033385;28;20392;-65
2022/03/14 00:59:40;;;;;;;2.85;1.30;;;;;;;20.52;45.98;101640.69;5033208;28;20052;-64
2022/03/14 01:02:07;;;;;;;4.82;1.45;;;;;;;20.49;46.13;101646.22;5033855;28;20503;-63
2022/03/14 01:04:32;;;;;;;3.50;1.20;;;;;;;20.48;46.11;101647.19;5034013;28;20036;-63
2022/03/14 01:06:58;;;;;;;3.40;1.33;;;;;;;20.44;46.12;101651.88;5033183;28;20021;-63
2022/03/14 01:09:23;;;;;;;3.72;1.30;;;;;;;20.43;46.01;101660.78;5033488;28;20017;-63
2022/03/14 01:11:48;;;;;;;3.45;1.35;;;;;;;20.43;46.01;101650.19;5033172;28;20038;-64
2022/03/14 01:14:14;;;;;;;2.88;1.38;;;;;;;20.45;46.10;101658.84;5033336;28;20025;-64
2022/03/14 01:16:40;;;;;;;3.40;1.45;;;;;;;20.44;45.91;101656.31;5033386;28;20492;-64
2022/03/14 01:19:07;;;;;;;4.28;1.38;;;;;;;20.41;46.19;101659.19;5033650;28;20388;-64
2022/03/14 01:21:32;;;;;;;3.13;1.23;;;;;;;20.37;46.31;101658.59;5032984;28;20021;-63
2022/03/14 01:23:59;;;;;;;4.22;1.60;;;;;;;20.37;45.95;101661.25;5032907;28;20029;-65
2022/03/14 01:26:24;;;;;;;3.10;1.40;;;;;;;20.38;46.32;101675.34;5033623;28;20168;-65
2022/03/14 01:28:50;;;;;;;2.97;1.50;;;;;;;20.38;46.09;101678.00;5032524;28;20064;-63
2022/03/14 01:31:16;;;;;;;5.28;1.70;;;;;;;20.38;46.04;101678.81;5033452;28;20053;-63
2022/03/14 01:33:41;;;;;;;3.45;1.50;;;;;;;20.38;46.05;101678.00;5033114;28;20025;-63
2022/03/14 01:36:06;;;;;;;4.50;1.50;;;;;;;20.35;46.16;101673.78;5032674;28;20028;-63
2022/03/14 01:38:32;;;;;;;3.47;1.30;;;;;;;20.37;46.05;101682.44;5033250;28;20033;-64
2022/03/14 01:40:57;;;;;;;3.83;1.42;;;;;;;20.35;46.13;101680.88;5032889;28;20064;-64
2022/03/14 01:43:24;;;;;;;3.08;1.25;;;;;;;20.35;46.06;101678.22;5032721;28;20056;-64
2022/03/14 01:45:50;;;;;;;3.63;1.58;;;;;;;20.33;46.15;101682.78;5033061;28;20025;-64
2022/03/14 01:48:15;;;;;;;3.38;1.48;;;;;;;20.32;46.07;101681.94;5032570;28;20032;-64
2022/03/14 01:50:41;;;;;;;3.08;1.17;;;;;;;20.34;45.93;101684.47;5032548;28;20029;-64
2022/03/14 01:53:06;;;;;;;2.97;1.35;;;;;;;20.31;46.19;101682.91;5033004;28;20021;-64
2022/03/14 01:55:32;;;;;;;4.20;1.60;;;;;;;20.32;46.20;101689.88;5032484;28;20032;-64
2022/03/14 01:57:58;;;;;;;2.75;1.30;;;;;;;20.30;46.19;101697.94;5032687;28;20112;-64
2022/03/14 02:00:23;;;;;;;4.72;1.40;;;;;;;20.30;46.05;101703.25;5033154;28;20064;-64
2022/03/14 02:02:48;;;;;;;2.88;1.23;;;;;;;20.29;46.28;101704.19;5032314;28;20051;-64
2022/03/14 02:05:16;;;;;;;3.47;1.42;;;;;;;20.29;45.95;101698.91;5032747;28;20463;-64
2022/03/14 02:07:41;;;;;;;3.80;1.40;;;;;;;20.26;46.14;101698.31;5032486;28;20096;-64
2022/03/14 02:10:07;;;;;;;3.40;1.30;;;;;;;20.27;46.08;101708.78;5032204;28;20026;-64
2022/03/14 02:12:33;;;;;;;2.88;1.33;;;;;;;20.26;46.09;101703.59;5032297;28;20041;-64
2022/03/14 02:14:58;;;;;;;2.97;1.23;;;;;;;20.27;45.88;101710.59;5032866;28;20024;-64
2022/03/14 02:17:23;;;;;;;3.30;1.47;;;;;;;20.27;46.05;101718.53;5032126;28;20035;-64
2022/03/14 02:19:49;;;;;;;3.90;1.17;;;;;;;20.24;46.16;101718.75;5032261;28;20368;-65
2022/03/14 02:22:15;;;;;;;3.65;1.42;;;;;;;20.24;46.07;101724.06;5032717;28;20028;-64
2022/03/14 02:24:42;;;;;;;3.63;1.42;;;;;;;20.22;46.04;101724.16;5031891;28;20104;-65
2022/03/14 02:27:07;;;;;;;2.85;1.30;;;;;;;20.21;45.81;101724.28;5032521;28;20029;-63
2022/03/14 02:29:33;;;;;;;3.13;1.35;;;;;;;20.21;45.64;101729.56;5032496;28;20045;-65
2022/03/14 02:31:58;;;;;;;3.83;1.38;;;;;;;20.20;46.12;101722.59;5031919;28;20113;-63
2022/03/14 02:34:24;;;;;;;4.22;1.48;;;;;;;20.18;45.86;101727.16;5032863;28;20024;-63
2022/03/14 02:36:49;;;;;;;3.23;1.30;;;;;;;20.19;45.96;101731.50;5032140;28;20025;-63
2022/03/14 02:39:14;;;;;;;3.55;1.48;;;;;;;20.16;45.77;101732.56;5031780;28;20285;-63
2022/03/14 02:41:40;;;;;;;3.58;1.40;;;;;;;20.18;45.99;101728.00;5032484;28;20029;-64
2022/03/14 02:44:07;;;;;;;3.33;1.30;;;;;;;20.18;45.76;101735.09;5032652;28;20087;-63
2022/03/14 02:46:37;;;;;;;3.15;1.15;;;;;;;20.19;46.05;101748.22;5031903;28;20028;-63
2022/03/14 02:49:04;;;;;;;3.40;1.40;;;;;;;20.18;45.97;101730.63;5032668;28;20096;-63
2022/03/14 02:51:29;;;;;;;3.92;1.40;;;;;;;20.16;46.01;101744.97;5032268;28;20040;-64
2022/03/14 02:53:56;;;;;;;2.85;1.20;;;;;;;20.17;45.88;101751.94;5031430;28;20025;-64
2022/03/14 02:56:22;;;;;;;3.67;1.38;;;;;;;20.15;45.77;101751.22;5032607;28;20017;-63
2022/03/14 02:58:51;;;;;;;2.17;1.10;;;;;;;20.14;46.15;101763.59;5031707;28;20025;-63
2022/03/14 03:01:17;;;;;;;3.33;1.30;;;;;;;20.12;45.97;101765.50;5032092;28;20021;-63
2022/03/14 03:03:42;;;;;;;5.68;1.45;;;;;;;20.11;46.00;101769.97;5032082;28;20030;-64
2022/03/14 03:06:11;;;;;;;4.28;1.60;;;;;;;20.11;45.86;101777.06;5031736;28;20022;-64
2022/03/14 03:08:37;;;;;;;4.03;1.40;;;;;;;20.10;45.60;101776.22;5031942;28;20027;-64
2022/03/14 03:11:04;;;;;;;3.38;1.20;;;;;;;20.10;45.52;101791.25;5032113;28;20045;-64
2022/03/14 03:13:29;;;;;;;3.58;1.25;;;;;;;20.09;45.74;101792.19;5031601;28;20022;-63
2022/03/14 03:15:54;;;;;;;3.30;1.10;;;;;;;20.08;45.33;101799.31;5031924;28;20036;-63
2022/03/14 03:18:20;;;;;;;3.27;1.10;;;;;;;20.08;45.75;101809.06;5032116;28;20022;-64
2022/03/14 03:20:45;;;;;;;5.00;1.47;;;;;;;20.04;45.61;101808.41;5033666;28;20344;-64
2022/03/14 03:23:10;;;;;;;2.88;1.20;;;;;;;20.03;45.83;101809.38;5035757;28;20281;-63
2022/03/14 03:25:36;;;;;;;3.27;1.20;;;;;;;20.03;45.56;101827.09;5035383;28;20057;-63
2022/03/14 03:28:01;;;;;;;3.42;1.27;;;;;;;20.00;45.89;101822.84;5034987;28;20293;-63
2022/03/14 03:30:26;;;;;;;2.88;1.23;;;;;;;20.02;45.65;101833.31;5035758;28;20025;-63
2022/03/14 03:32:52;;;;;;;3.38;1.30;;;;;;;20.03;45.89;101838.50;5035116;28;20473;-63
2022/03/14 03:35:17;;;;;;;3.88;1.40;;;;;;;20.01;45.62;101855.44;5034807;28;20021;-63
2022/03/14 03:37:42;;;;;;;3.60;1.23;;;;;;;19.98;45.86;101855.66;5035398;28;20052;-63
2022/03/14 03:40:08;;;;;;;2.67;1.20;;;;;;;19.97;45.61;101860.13;5035527;28;20045;-63
2022/03/14 03:42:36;;;;;;;2.88;1.17;;;;;;;19.97;45.55;101862.75;5034429;28;20472;-63
2022/03/14 03:45:01;;;;;;;3.97;1.20;;;;;;;19.97;45.74;101869.84;5035196;28;20026;-63
2022/03/14 03:47:27;;;;;;;2.60;1.20;;;;;;;19.94;45.61;101877.03;5035398;28;20028;-63
2022/03/14 03:49:52;;;;;;;4.50;1.30;;;;;;;19.93;45.48;101872.72;5034244;28;20335;-64
2022/03/14 03:52:18;;;;;;;3.58;1.60;;;;;;;19.93;45.70;101879.78;5035129;28;20397;-63
2022/03/14 03:54:43;;;;;;;4.47;1.33;;;;;;;19.94;45.67;101886.78;5035042;28;20037;-63
2022/03/14 03:57:08;;;;;;;4.70;1.23;;;;;;;19.93;45.63;101890.38;5034573;28;20484;-63
2022/03/14 03:59:34;;;;;;;4.30;1.38;;;;;;;19.91;45.65;101892.31;5034709;28;20083;-64
2022/03/14 04:02:01;;;;;;;3.80;1.50;;;;;;;19.90;45.72;101901.19;5034462;28;20030;-64
2022/03/14 04:04:26;;;;;;;3.72;1.27;;;;;;;19.89;45.72;101905.63;5034620;28;20034;-64
2022/03/14 04:06:54;;;;;;;2.58;1.20;;;;;;;19.88;45.72;101903.09;5034525;28;20036;-64
2022/03/14 04:09:19;;;;;;;3.17;1.25;;;;;;;19.86;45.78;101900.56;5034507;28;20018;-63
2022/03/14 04:11:45;;;;;;;3.60;1.10;;;;;;;19.88;45.84;101916.34;5034132;28;20559;-64
2022/03/14 04:14:12;;;;;;;3.60;1.10;;;;;;;19.86;46.05;101916.44;5034917;28;20046;-64
2022/03/14 04:16:41;;;;;;;2.78;1.10;;;;;;;19.87;45.65;101917.31;5034086;28;20060;-62
2022/03/14 04:19:06;;;;;;;3.20;1.27;;;;;;;19.88;45.80;101926.91;5034375;28;20026;-63
2022/03/14 04:21:36;;;;;;;3.28;1.27;;;;;;;19.87;45.96;101934.00;5034680;28;20029;-64
2022/03/14 04:24:05;;;;;;;4.65;1.20;;;;;;;19.87;45.78;101939.31;5034267;28;20021;-64
2022/03/14 04:26:30;;;;;;;2.97;1.08;;;;;;;19.87;45.71;101939.31;5034709;28;20144;-64
2022/03/14 04:28:56;;;;;;;2.78;1.10;;;;;;;19.86;45.84;101948.19;5034270;28;20033;-63
2022/03/14 04:31:21;;;;;;;4.82;1.30;;;;;;;19.86;45.88;101947.34;5033635;28;20025;-64
2022/03/14 04:33:47;;;;;;;3.22;1.20;;;;;;;19.85;45.80;101951.81;5034183;28;20025;-64
2022/03/14 04:36:13;;;;;;;4.20;1.35;;;;;;;19.86;46.15;101960.56;5034606;28;20079;-64
2022/03/14 04:38:39;;;;;;;2.60;1.25;;;;;;;19.84;45.81;101960.69;5033454;28;20022;-63
2022/03/14 04:41:04;;;;;;;3.60;1.40;;;;;;;19.83;45.76;101963.44;5034428;28;20066;-63
2022/03/14 04:43:30;;;;;;;3.38;1.23;;;;;;;19.82;45.73;101964.38;5034343;28;20021;-63
2022/03/14 04:45:55;;;;;;;4.07;1.45;;;;;;;19.80;45.96;101958.38;5033205;28;20029;-64
2022/03/14 04:48:21;;;;;;;3.80;1.70;;;;;;;19.79;45.69;101956.66;5034185;28;20030;-64
2022/03/14 04:50:46;;;;;;;3.28;1.38;;;;;;;19.80;46.09;101963.66;5033913;28;20035;-63
2022/03/14 04:53:11;;;;;;;3.15;1.20;;;;;;;19.80;45.82;101963.66;5033305;28;20045;-63
2022/03/14 04:55:37;;;;;;;2.30;1.08;;;;;;;19.78;45.71;101971.69;5033886;28;20049;-63
2022/03/14 04:58:03;;;;;;;3.63;1.33;;;;;;;19.78;46.04;101979.63;5034028;28;20017;-63
2022/03/14 05:00:29;;;;;;;3.60;1.30;;;;;;;19.75;45.78;101983.28;5033336;28;20067;-63
2022/03/14 05:03:02;;;;;;;5.57;1.38;;;;;;;19.74;46.02;101986.91;5033561;28;20537;-63
2022/03/14 05:05:29;;;;;;;3.13;1.10;;;;;;;19.75;45.67;101995.69;5033603;28;20040;-64
2022/03/14 05:07:54;;;;;;;4.43;1.90;;;;;;;19.72;45.51;102002.03;5033221;28;20058;-64
2022/03/14 05:10:19;;;;;;;3.50;1.35;;;;;;;19.71;45.83;102010.06;5033730;28;20065;-64
2022/03/14 05:12:45;;;;;;;2.78;1.20;;;;;;;19.70;45.86;102009.22;5032782;28;20049;-64
2022/03/14 05:15:10;;;;;;;3.05;1.20;;;;;;;19.71;46.07;102016.22;5033319;28;20095;-64
2022/03/14 05:17:36;;;;;;;5.60;1.42;;;;;;;19.71;45.94;102026.78;5033365;28;20029;-64
2022/03/14 05:20:04;;;;;;;3.22;1.20;;;;;;;19.68;45.75;102020.88;5033272;28;20029;-64
2022/03/14 05:22:29;;;;;;;3.63;1.20;;;;;;;19.68;45.91;102034.94;5033272;28;20018;-64
2022/03/14 05:24:55;;;;;;;1.48;0.88;;;;;;;19.69;45.92;102030.50;5033348;28;20125;-64
2022/03/14 05:27:20;;;;;;;3.78;1.40;;;;;;;19.68;45.83;102036.75;5032621;28;20045;-63
2022/03/14 05:29:45;;;;;;;2.72;1.20;;;;;;;19.67;45.79;102035.03;5032933;28;20029;-63
2022/03/14 05:32:11;;;;;;;3.88;1.30;;;;;;;19.67;45.69;102046.47;5033241;28;20380;-63
2022/03/14 05:34:36;;;;;;;4.85;1.38;;;;;;;19.66;45.46;102039.50;5031891;28;20026;-64
2022/03/14 05:37:02;;;;;;;3.40;1.33;;;;;;;19.67;45.85;102050.91;5033053;28;20021;-64
2022/03/14 05:39:27;;;;;;;3.22;1.40;;;;;;;19.66;45.58;102054.50;5033121;28;20032;-64
2022/03/14 05:41:53;;;;;;;4.13;1.50;;;;;;;19.64;45.47;102054.59;5031892;28;20939;-64
2022/03/14 05:44:19;;;;;;;4.15;1.30;;;;;;;19.64;45.94;102064.34;5033213;28;20037;-64
2022/03/14 05:46:45;;;;;;;5.10;1.67;;;;;;;19.64;45.70;102061.69;5032489;28;20022;-64
2022/03/14 05:49:11;;;;;;;3.72;1.63;;;;;;;19.61;45.81;102067.19;5032352;28;20045;-64
2022/03/14 05:51:37;;;;;;;3.88;1.60;;;;;;;19.63;45.83;102075.88;5032829;28;20056;-64
2022/03/14 05:54:03;;;;;;;3.72;1.42;;;;;;;19.61;45.67;102081.25;5033002;28;20133;-64
2022/03/14 05:56:29;;;;;;;4.18;1.45;;;;;;;19.60;45.65;102081.34;5031929;28;20516;-64
2022/03/14 05:58:54;;;;;;;4.38;1.67;;;;;;;19.60;45.88;102092.81;5032496;28;20104;-64
2022/03/14 06:01:21;;;;;;;3.47;1.50;;;;;;;19.58;45.75;102095.56;5032811;28;20476;-64
2022/03/14 06:03:47;;;;;;;3.53;1.38;;;;;;;19.59;45.75;102099.03;5031793;28;20040;-64
2022/03/14 06:06:13;;;;;;;3.88;1.65;;;;;;;19.58;45.67;102098.19;5032664;28;20026;-64
2022/03/14 06:08:38;;;;;;;3.00;1.38;;;;;;;19.57;46.12;102107.06;5031843;28;20017;-63
2022/03/14 06:11:07;;;;;;;3.30;1.38;;;;;;;19.58;46.30;102108.78;5032172;28;20489;-63
2022/03/14 06:13:33;;;;;;;5.53;2.50;;;;;;;19.70;46.41;102117.66;5032651;28;20060;-64
2022/03/14 06:15:58;;;;;;;6.47;1.90;;;;;;;19.78;47.08;102109.25;5031955;28;20412;-64
2022/03/14 06:18:24;;;;;;;5.35;1.92;;;;;;;19.87;46.96;102111.25;5032292;28;20053;-64
2022/03/14 06:20:49;;;;;;;3.40;1.50;;;;;;;19.92;46.66;102122.38;5032341;28;20128;-64
2022/03/14 06:23:16;;;;;;;4.10;1.42;;;;;;;19.97;46.82;102119.41;5032190;28;20043;-64
2022/03/14 06:25:42;;;;;;;5.28;1.67;;;;;;;20.03;46.80;102128.72;5032006;28;20105;-64
2022/03/14 06:28:08;;;;;;;4.97;2.00;;;;;;;20.07;46.95;102133.69;5032500;28;20068;-63
2022/03/14 06:30:34;;;;;;;6.60;1.60;;;;;;;20.13;47.38;102136.88;5031516;28;20033;-64
2022/03/14 06:32:59;;;;;;;4.50;1.58;;;;;;;20.16;47.23;102142.78;5032493;28;20029;-64
2022/03/14 06:35:25;;;;;;;5.38;1.67;;;;;;;20.21;47.32;102147.78;5032657;28;20075;-64
2022/03/14 06:37:50;;;;;;;5.43;1.73;;;;;;;20.23;47.08;102141.41;5031350;28;20111;-64
2022/03/14 06:40:16;;;;;;;5.72;1.80;;;;;;;20.29;46.90;102153.38;5032490;28;20041;-64
2022/03/14 06:42:48;;;;;;;5.00;1.60;;;;;;;20.32;47.13;102153.16;5032065;28;20017;-63
2022/03/14 06:45:14;;;;;;;4.13;1.45;;;;;;;20.35;46.88;102152.94;5031912;28;20026;-64
2022/03/14 06:47:39;;;;;;;2.80;1.33;;;;;;;20.37;47.03;102158.97;5032263;28;20064;-64
2022/03/14 06:50:07;;;;;;;4.30;1.40;;;;;;;20.41;47.05;102162.25;5032373;28;20116;-64
2022/03/14 06:52:32;;;;;;;6.30;1.83;;;;;;;20.43;46.97;102157.72;5031575;28;20037;-65
2022/03/14 06:54:58;;;;;;;4.03;1.60;;;;;;;20.43;46.35;102171.78;5033160;28;20033;-64
2022/03/14 06:57:23;;;;;;;5.22;1.75;;;;;;;20.40;45.94;102172.00;5035862;28;20490;-64
2022/03/14 06:59:48;;;;;;;3.60;1.53;;;;;;;20.43;46.27;102176.25;5035233;28;20033;-65
2022/03/14 07:02:13;;;;;;;4.93;1.63;;;;;;;20.42;46.33;102178.03;5036020;28;20789;-65
2022/03/14 07:04:39;;;;;;;5.45;1.33;;;;;;;20.44;46.42;102178.78;5035921;28;20794;-65
2022/03/14 07:07:05;;;;;;;5.35;1.40;;;;;;;20.50;46.36;102187.25;5035314;28;20030;-65
2022/03/14 07:09:31;;;;;;;3.38;1.17;;;;;;;20.52;46.69;102183.53;5035766;28;20064;-65
2022/03/14 07:11:57;;;;;;;4.50;1.27;;;;;;;20.52;46.26;102191.50;5034710;28;20058;-64
2022/03/14 07:14:22;;;;;;;3.00;1.20;;;;;;;20.51;46.44;102188.94;5035339;28;20080;-64
2022/03/14 07:16:49;;;;;;;4.65;1.58;;;;;;;20.50;46.76;102196.03;5035509;28;20030;-65
2022/03/14 07:19:14;;;;;;;4.22;1.50;;;;;;;20.50;46.90;102196.03;5034884;28;20112;-66
2022/03/14 07:21:40;;;;;;;4.55;1.60;;;;;;;20.50;46.83;102196.03;5035147;28;20115;-63
2022/03/14 07:24:06;;;;;;;6.32;1.40;;;;;;;20.50;47.01;102195.19;5035612;28;20022;-65
2022/03/14 07:26:31;;;;;;;4.30;1.40;;;;;;;20.52;46.55;102199.44;5034824;28;20044;-64
2022/03/14 07:28:56;;;;;;;6.05;2.03;;;;;;;20.55;47.02;102203.66;5035090;28;20030;-63
2022/03/14 07:31:22;;;;;;;4.45;1.50;;;;;;;20.58;46.86;102201.63;5035584;28;20037;-66
2022/03/14 07:33:48;;;;;;;5.22;1.35;;;;;;;20.64;47.09;102214.47;5034873;28;20073;-64
2022/03/14 07:36:14;;;;;;;5.28;1.60;;;;;;;20.68;46.83;102215.13;5035735;28;20037;-64
2022/03/14 07:38:40;;;;;;;4.60;1.40;;;;;;;20.71;46.76;102204.31;5035241;28;20370;-63
2022/03/14 07:41:05;;;;;;;5.25;1.45;;;;;;;20.71;45.84;102196.38;5034697;28;20499;-65
2022/03/14 07:43:31;;;;;;;4.75;1.65;;;;;;;20.73;46.42;102205.03;4959341;28;20047;-65
2022/03/14 07:45:56;;;;;;;4.88;1.90;;;;;;;20.78;45.59;102212.66;5015333;28;20033;-65
2022/03/14 07:48:22;;;;;;;4.28;1.90;;;;;;;20.76;45.76;102219.84;5014920;28;20026;-65
2022/03/14 07:50:48;;;;;;;5.82;2.03;;;;;;;20.78;46.59;102220.63;5015274;28;20040;-66
2022/03/14 07:53:13;;;;;;;5.13;1.65;;;;;;;20.79;46.72;102220.50;5015512;28;20060;-64
2022/03/14 07:55:39;;;;;;;4.97;1.70;;;;;;;20.83;46.16;102224.59;5014248;28;20029;-64
2022/03/14 07:58:04;;;;;;;4.82;1.73;;;;;;;20.87;46.06;102235.00;5015327;28;20457;-65
2022/03/14 08:00:29;;;;;;;5.05;1.70;;;;;;;20.88;45.95;102234.03;5015342;28;20030;-65
2022/03/14 08:02:55;;;;;;;6.33;2.13;;;;;;;20.89;44.96;102241.06;5014325;28;20026;-67
2022/03/14 08:05:26;;;;;;;6.50;1.85;;;;;;;20.87;45.79;102243.81;5020906;28;20278;-66
2022/03/14 08:07:53;;;;;;;4.00;1.48;;;;;;;20.88;45.96;102253.44;5034955;28;20021;-60
2022/03/14 08:10:19;;;;;;;3.90;1.33;;;;;;;20.87;45.93;102250.88;5034311;28;20029;-62
2022/03/14 08:12:49;;;;;;;5.72;1.90;;;;;;;20.88;46.24;102250.78;5034276;28;20125;-61
2022/03/14 08:15:25;;;;;;;4.38;1.73;;;;;;;20.89;46.42;102252.50;5034446;28;20043;-60
2022/03/14 08:17:52;;;;;;;4.75;1.52;;;;;;;20.88;46.32;102256.09;5034417;28;20060;-61
2022/03/14 08:20:18;;;;;;;4.55;1.67;;;;;;;20.94;46.17;102260.94;5034738;28;20029;-61
2022/03/14 08:22:43;;;;;;;6.10;1.92;;;;;;;20.93;46.19;102269.84;5028270;28;20018;-60
2022/03/14 08:25:11;;;;;;;6.17;1.87;;;;;;;20.97;46.45;102276.63;5014446;28;20025;-60
2022/03/14 08:27:38;;;;;;;5.38;1.50;;;;;;;20.96;46.22;102277.59;5013599;28;20705;-59
2022/03/14 08:30:04;;;;;;;7.18;2.00;;;;;;;20.98;46.21;102273.03;5013759;28;20466;-61
2022/03/14 08:32:31;;;;;;;6.22;1.90;;;;;;;20.99;46.07;102280.00;5031389;28;20025;-61
2022/03/14 08:34:57;;;;;;;4.95;1.60;;;;;;;21.02;45.73;102284.25;5034279;28;20380;-61
2022/03/14 08:37:23;;;;;;;5.25;1.90;;;;;;;21.04;45.97;102281.50;5033399;28;20017;-61
2022/03/14 08:39:49;;;;;;;6.85;2.08;;;;;;;21.04;46.28;102287.63;5015266;28;20041;-60
2022/03/14 08:42:17;;;;;;;6.40;1.73;;;;;;;21.05;46.08;102296.47;5014605;28;20018;-60
2022/03/14 08:44:42;;;;;;;4.22;1.98;;;;;;;21.06;46.04;102298.13;5013321;28;20027;-64
2022/03/14 08:47:07;;;;;;;6.35;1.80;;;;;;;21.02;46.01;102298.34;5014676;28;20026;-60
2022/03/14 08:49:34;;;;;;;7.10;2.03;;;;;;;21.04;45.89;102310.66;5014389;28;20022;-59
2022/03/14 08:51:59;;;;;;;5.88;1.85;;;;;;;21.06;45.68;102324.63;5018499;28;20304;-59
2022/03/14 08:54:25;;;;;;;5.68;1.70;;;;;;;21.04;45.93;102322.09;5026777;28;20033;-59
2022/03/14 08:56:51;;;;;;;5.72;1.75;;;;;;;21.05;46.03;102331.75;5018222;28;20076;-58
2022/03/14 08:59:16;;;;;;;7.72;2.03;;;;;;;21.04;46.03;102322.09;5014281;28;20017;-59
2022/03/14 09:01:42;;;;;;;4.33;2.10;;;;;;;21.02;45.60;102330.16;5033578;28;20033;-60
2022/03/14 09:04:07;;;;;;;5.10;2.00;;;;;;;21.02;45.67;102332.81;5034064;28;20266;-60
2022/03/14 09:06:36;;;;;;;5.33;2.03;;;;;;;21.02;46.06;102340.75;5030335;28;20032;-60
2022/03/14 09:09:03;;;;;;;4.05;1.65;;;;;;;21.06;45.93;102344.06;5016970;28;20271;-60
2022/03/14 09:11:28;;;;;;;4.13;1.60;;;;;;;21.08;46.00;102347.44;5024069;28;20473;-60
2022/03/14 09:13:53;;;;;;;5.10;2.10;;;;;;;21.07;46.05;102350.19;5023391;28;20052;-60
2022/03/14 09:16:19;;;;;;;7.20;2.25;;;;;;;21.09;46.15;102358.88;5013035;28;20073;-60
2022/03/14 09:18:45;;;;;;;4.75;1.73;;;;;;;21.08;46.02;102359.81;5026823;28;20037;-61
2022/03/14 09:21:12;;;;;;;4.88;1.80;;;;;;;21.12;45.65;102362.16;5033436;28;20045;-60
2022/03/14 09:23:39;;;;;;;5.50;1.80;;;;;;;21.12;45.27;102364.81;5033359;28;20018;-59
2022/03/14 09:26:04;;;;;;;6.82;2.20;;;;;;;21.13;45.42;102374.47;5027806;28;20018;-60
2022/03/14 09:28:30;;;;;;;5.53;2.17;;;;;;;21.10;45.20;102369.38;5013570;28;20025;-60
2022/03/14 09:30:55;;;;;;;5.07;1.90;;;;;;;21.11;45.35;102370.22;5013397;28;20375;-59
2022/03/14 09:33:21;;;;;;;7.60;2.17;;;;;;;21.10;45.05;102357.94;5013157;28;20022;-61
2022/03/14 09:35:46;;;;;;;6.35;2.90;;;;;;;21.10;45.15;102373.84;5013093;28;20367;-59
2022/03/14 09:38:14;;;;;;;4.85;1.90;;;;;;;21.07;45.22;102371.41;5013897;28;20029;-61
2022/03/14 09:40:43;;;;;;;5.22;1.95;;;;;;;21.10;45.55;102384.44;5012558;28;20112;-60
2022/03/14 09:43:09;;;;;;;5.13;1.90;;;;;;;21.10;45.39;102384.44;5018344;28;20104;-60
2022/03/14 09:45:36;;;;;;;5.43;1.85;;;;;;;21.09;45.42;102388.03;5032727;28;20469;-60
2022/03/14 09:48:03;;;;;;;5.70;2.10;;;;;;;21.10;45.49;102397.69;5032418;28;20049;-59
2022/03/14 09:50:35;;;;;;;5.82;1.73;;;;;;;21.09;45.92;102398.66;5033062;28;20396;-60
2022/03/14 09:53:11;;;;;;;5.90;1.88;;;;;;;21.09;46.10;102403.94;5033401;28;20021;-60
2022/03/14 09:55:44;;;;;;;7.93;2.20;;;;;;;21.10;45.71;102417.09;5031872;28;20027;-59
2022/03/14 09:58:20;;;;;;;4.13;1.77;;;;;;;21.10;45.79;102422.41;5033196;28;20033;-60
2022/03/14 10:00:47;;;;;;;5.68;1.90;;;;;;;21.10;45.86;102419.75;5019770;28;20028;-60
2022/03/14 10:03:15;;;;;;;5.88;1.90;;;;;;;21.10;45.73;102429.50;5013144;28;20022;-61
2022/03/14 10:05:42;;;;;;;6.50;2.05;;;;;;;21.10;45.27;102432.16;5013041;28;20108;-59
2022/03/14 10:08:07;;;;;;;5.75;1.80;;;;;;;21.09;45.53;102441.91;5012364;28;20473;-60
2022/03/14 10:10:37;;;;;;;5.17;2.10;;;;;;;21.06;45.85;102443.91;5013116;28;20036;-61
2022/03/14 10:13:06;;;;;;;6.03;2.17;;;;;;;21.07;45.66;102438.50;5012911;28;20805;-62
2022/03/14 10:15:36;;;;;;;6.38;2.03;;;;;;;21.09;45.54;102452.50;5012577;28;20022;-61
2022/03/14 10:18:12;;;;;;;8.93;2.20;;;;;;;21.11;45.38;102445.31;5012966;28;20504;-62
2022/03/14 10:20:54;;;;;;;5.97;1.83;;;;;;;21.12;45.20;102443.50;5012589;28;20461;-62
2022/03/14 10:23:35;;;;;;;5.18;1.77;;;;;;;21.12;44.70;102439.03;5012219;28;20030;-63
2022/03/14 10:26:01;;;;;;;5.72;1.90;;;;;;;21.12;45.07;102456.75;5013127;28;20466;-62
2022/03/14 10:28:29;;;;;;;8.00;2.20;;;;;;;21.11;45.54;102458.56;5013461;28;20022;-63
2022/03/14 10:30:55;;;;;;;6.72;1.70;;;;;;;21.11;45.72;102461.22;5016057;28;20026;-61
2022/03/14 10:33:23;;;;;;;5.45;2.00;;;;;;;21.10;45.81;102459.50;5017040;28;20363;-61
2022/03/14 10:35:49;;;;;;;8.02;2.30;;;;;;;21.10;45.78;102472.75;5016060;28;20393;-62
2022/03/14 10:38:16;;;;;;;8.35;2.35;;;;;;;21.08;45.82;102464.06;5016706;28;20469;-61
2022/03/14 10:40:43;;;;;;;6.57;1.52;;;;;;;21.06;45.49;102466.00;5016376;28;20477;-64
2022/03/14 10:43:24;;;;;;;5.93;2.10;;;;;;;21.08;45.58;102474.69;5016134;28;20026;-61
2022/03/14 10:45:50;;;;;;;7.57;2.00;;;;;;;21.07;45.09;102478.28;5016322;28;20465;-61
2022/03/14 10:48:15;;;;;;;5.25;1.85;;;;;;;21.09;45.68;102473.69;5016625;28;20062;-62
2022/03/14 10:50:42;;;;;;;4.85;1.92;;;;;;;21.13;45.79;102483.16;5015347;28;20454;-63
2022/03/14 10:53:17;;;;;;;5.97;1.88;;;;;;;21.16;45.96;102479.47;5016654;28;20032;-62
2022/03/14 10:55:47;;;;;;;6.00;1.90;;;;;;;21.18;44.56;102493.44;5016484;28;20028;-63
2022/03/14 10:58:14;;;;;;;6.78;2.15;;;;;;;21.21;44.91;102495.91;5015554;28;20033;-60
2022/03/14 11:00:58;;;;;;;9.95;2.30;;;;;;;21.25;44.96;102496.53;5016109;28;20034;-60
2022/03/14 11:03:24;;;;;;;;;;;;;;;21.30;44.88;102495.25;5016749;28;20034;-61
2022/03/14 11:05:53;;;;;;;6.30;2.40;;;;;;;21.35;44.76;102490.47;5016653;28;19913;-61
2022/03/14 11:08:42;;;;;;;7.82;2.85;;;;;;;21.37;45.04;102493.88;5016720;28;20025;-62
2022/03/14 11:11:14;;;;;;;5.13;1.83;;;;;;;21.40;45.17;102489.31;5015170;28;20490;-63
2022/03/14 11:13:42;;;;;;;6.60;2.17;;;;;;;21.43;45.00;102494.38;5015860;28;20484;-62
2022/03/14 11:16:34;;;;;;;5.25;1.60;;;;;;;21.47;44.99;102487.94;5016330;28;20017;-62
2022/03/14 11:18:59;;;;;;;5.95;1.90;;;;;;;21.52;44.84;102494.66;5017004;28;20038;-62
2022/03/14 11:21:26;;;;;;;5.50;1.90;;;;;;;21.52;44.98;102494.66;5015959;28;20018;-62